Southwest Florida International Airport
KRSW : now visible

Airfield :











YOU CAN JOIN US ON...

 
LOGIN :

Register | Disclaimer

   EN    FR    IT 

 









Legend :    VFR   Marginal VFR   IFR   Intensive IFR   Very Intensive IFR
Visi :
Ceiling :
>= 8 km
>= 3000ft
5 to 8 km
1000 to 3000 ft
1500m to 5 km
500 to 1000 ft
800 to 1500m
200 to 500 ft
< 800m
< 200 ft
Symbols :   Thunderstorms  Fog  Heavy snow  Heavy precipitations  Wind > 20 kt







- Airport Elevation : 30 ft
- IATA code : RSW


KRSW - Southwest Florida International

CURRENT METAR :
  • 260153Z 23003KT 10SM CLR 27/25 A2994 RMK AO2 SLP136 T02720250

EXPIRED METARs :
  • 260053Z 00000KT 10SM FEW075 28/26 A2992 RMK AO2 LTG DSNT W AND NW SLP130 T02830256
  • 260010Z 00000KT 10SM FEW002 28/25 A2992 RMK AO2 LTG DSNT W AND NW T02830250
  • 252353Z 14004KT 10SM CLR 28/24 A2991 RMK AO2 LTG DSNT NW SLP127 60011 T02830244 10317 20283 53008

TAF KRSW
Valid from the 26 at 00:00 until the 27 at 00:00 UTC


252320Z 2600/2624 VRB04KT P6SM SCT040 BKN200
FM260300 08004KT P6SM SCT040 SCT200
FM261200 VRB03KT P6SM SCT015 BKN100
FM261800 25008KT P6SM VCTS SCT030CB BKN080
FM262100 25007KT P6SM VCTS BKN050CB BKN110
No reported NOTAMs for that airfield.



MET'MAP, your aeronautical weather chart ! - Copyright ORBIFLY December 2007 - Disclaimer

ORBIFLY MET'MAP TEAM :

Programming & Development : Alexandra Zaïnal
Concept & Development : Baudouin d'Aumeries
Co-Development & Prog : Marc-Olivier Méhu
Technical & hardware support : Manuel Goepfert

Contact : metmap@orbifly.com




SOURCES & CREDITS :

   NOAA       Earth
Advisory